sensor_id;sensor_type;location;lat;lon;timestamp;P1;durP1;ratioP1;P2;durP2;ratioP2
66112;SDS011;52893;52.870;5.822;2022-10-28T00:01:18;19.40;;;7.55;;
66112;SDS011;52893;52.870;5.822;2022-10-28T00:03:46;15.45;;;6.95;;
66112;SDS011;52893;52.870;5.822;2022-10-28T00:06:16;15.75;;;6.70;;
66112;SDS011;52893;52.870;5.822;2022-10-28T00:08:44;18.85;;;7.65;;
66112;SDS011;52893;52.870;5.822;2022-10-28T00:11:13;15.15;;;6.18;;
66112;SDS011;52893;52.870;5.822;2022-10-28T00:13:42;9.02;;;5.22;;
66112;SDS011;52893;52.870;5.822;2022-10-28T00:16:12;11.15;;;6.30;;
66112;SDS011;52893;52.870;5.822;2022-10-28T00:18:41;20.08;;;7.45;;
66112;SDS011;52893;52.870;5.822;2022-10-28T00:21:09;17.05;;;7.38;;
66112;SDS011;52893;52.870;5.822;2022-10-28T00:23:37;16.15;;;7.22;;
66112;SDS011;52893;52.870;5.822;2022-10-28T00:26:06;19.33;;;8.43;;
66112;SDS011;52893;52.870;5.822;2022-10-28T00:28:38;23.63;;;8.75;;
66112;SDS011;52893;52.870;5.822;2022-10-28T00:31:06;19.33;;;8.35;;
66112;SDS011;52893;52.870;5.822;2022-10-28T00:33:34;20.67;;;7.20;;
66112;SDS011;52893;52.870;5.822;2022-10-28T00:36:09;21.55;;;8.30;;
66112;SDS011;52893;52.870;5.822;2022-10-28T00:38:38;16.42;;;6.90;;
66112;SDS011;52893;52.870;5.822;2022-10-28T00:41:05;19.38;;;7.65;;
66112;SDS011;52893;52.870;5.822;2022-10-28T00:43:36;14.50;;;6.68;;
66112;SDS011;52893;52.870;5.822;2022-10-28T00:46:06;15.93;;;7.88;;
66112;SDS011;52893;52.870;5.822;2022-10-28T00:48:41;19.83;;;7.95;;
66112;SDS011;52893;52.870;5.822;2022-10-28T00:51:10;18.65;;;8.35;;
66112;SDS011;52893;52.870;5.822;2022-10-28T00:53:38;23.45;;;8.30;;
66112;SDS011;52893;52.870;5.822;2022-10-28T00:56:07;24.38;;;8.45;;
66112;SDS011;52893;52.870;5.822;2022-10-28T00:58:37;15.50;;;8.35;;
66112;SDS011;52893;52.870;5.822;2022-10-28T01:01:05;24.40;;;8.50;;
66112;SDS011;52893;52.870;5.822;2022-10-28T01:03:32;16.40;;;9.40;;
66112;SDS011;52893;52.870;5.822;2022-10-28T01:06:01;15.50;;;9.25;;
66112;SDS011;52893;52.870;5.822;2022-10-28T01:08:30;20.70;;;8.55;;
66112;SDS011;52893;52.870;5.822;2022-10-28T01:11:03;23.38;;;8.68;;
66112;SDS011;52893;52.870;5.822;2022-10-28T01:13:50;21.63;;;9.50;;
66112;SDS011;52893;52.870;5.822;2022-10-28T01:16:28;26.08;;;10.02;;
66112;SDS011;52893;52.870;5.822;2022-10-28T01:19:11;17.80;;;8.55;;
66112;SDS011;52893;52.870;5.822;2022-10-28T01:22:00;18.45;;;8.60;;
66112;SDS011;52893;52.870;5.822;2022-10-28T01:24:41;19.40;;;8.90;;
66112;SDS011;52893;52.870;5.822;2022-10-28T01:27:24;22.27;;;8.27;;
66112;SDS011;52893;52.870;5.822;2022-10-28T01:30:06;19.17;;;8.82;;
66112;SDS011;52893;52.870;5.822;2022-10-28T01:32:43;23.20;;;8.98;;
66112;SDS011;52893;52.870;5.822;2022-10-28T01:35:21;22.58;;;8.88;;
66112;SDS011;52893;52.870;5.822;2022-10-28T01:37:56;17.25;;;8.57;;
66112;SDS011;52893;52.870;5.822;2022-10-28T01:40:36;13.95;;;7.55;;
66112;SDS011;52893;52.870;5.822;2022-10-28T01:43:10;17.38;;;8.02;;
66112;SDS011;52893;52.870;5.822;2022-10-28T01:45:42;18.30;;;8.15;;
66112;SDS011;52893;52.870;5.822;2022-10-28T01:48:15;16.25;;;7.88;;
66112;SDS011;52893;52.870;5.822;2022-10-28T01:50:49;20.40;;;8.77;;
66112;SDS011;52893;52.870;5.822;2022-10-28T01:53:21;20.77;;;7.97;;
66112;SDS011;52893;52.870;5.822;2022-10-28T01:55:54;13.70;;;6.43;;
66112;SDS011;52893;52.870;5.822;2022-10-28T01:58:25;15.38;;;7.53;;
66112;SDS011;52893;52.870;5.822;2022-10-28T02:00:56;17.10;;;7.60;;
66112;SDS011;52893;52.870;5.822;2022-10-28T02:03:27;15.27;;;8.45;;
66112;SDS011;52893;52.870;5.822;2022-10-28T02:05:55;18.13;;;8.30;;
66112;SDS011;52893;52.870;5.822;2022-10-28T02:08:28;18.33;;;7.85;;
66112;SDS011;52893;52.870;5.822;2022-10-28T02:14:16;18.20;;;8.20;;
66112;SDS011;52893;52.870;5.822;2022-10-28T02:16:53;24.30;;;9.00;;
66112;SDS011;52893;52.870;5.822;2022-10-28T02:19:28;19.65;;;9.13;;
66112;SDS011;52893;52.870;5.822;2022-10-28T02:22:03;20.77;;;9.20;;
66112;SDS011;52893;52.870;5.822;2022-10-28T02:24:39;19.63;;;9.82;;
66112;SDS011;52893;52.870;5.822;2022-10-28T02:27:15;19.52;;;9.00;;
66112;SDS011;52893;52.870;5.822;2022-10-28T02:29:48;27.30;;;9.68;;
66112;SDS011;52893;52.870;5.822;2022-10-28T02:32:19;19.93;;;8.93;;
66112;SDS011;52893;52.870;5.822;2022-10-28T02:34:53;22.35;;;8.40;;
66112;SDS011;52893;52.870;5.822;2022-10-28T02:37:22;17.00;;;7.38;;
66112;SDS011;52893;52.870;5.822;2022-10-28T02:39:54;23.67;;;8.88;;
66112;SDS011;52893;52.870;5.822;2022-10-28T02:42:25;17.20;;;8.57;;
66112;SDS011;52893;52.870;5.822;2022-10-28T02:44:57;17.83;;;7.25;;
66112;SDS011;52893;52.870;5.822;2022-10-28T02:47:34;16.05;;;8.32;;
66112;SDS011;52893;52.870;5.822;2022-10-28T02:50:05;17.08;;;8.13;;
66112;SDS011;52893;52.870;5.822;2022-10-28T02:52:36;20.27;;;7.97;;
66112;SDS011;52893;52.870;5.822;2022-10-28T02:55:07;15.77;;;8.05;;
66112;SDS011;52893;52.870;5.822;2022-10-28T02:57:35;21.45;;;9.18;;
66112;SDS011;52893;52.870;5.822;2022-10-28T03:00:06;17.05;;;8.73;;
66112;SDS011;52893;52.870;5.822;2022-10-28T03:02:36;18.83;;;9.02;;
66112;SDS011;52893;52.870;5.822;2022-10-28T03:05:05;23.35;;;9.45;;
66112;SDS011;52893;52.870;5.822;2022-10-28T03:07:32;23.70;;;8.68;;
66112;SDS011;52893;52.870;5.822;2022-10-28T03:09:59;21.45;;;8.85;;
66112;SDS011;52893;52.870;5.822;2022-10-28T03:12:27;24.17;;;9.95;;
66112;SDS011;52893;52.870;5.822;2022-10-28T03:14:54;15.30;;;7.63;;
66112;SDS011;52893;52.870;5.822;2022-10-28T03:17:21;18.17;;;10.25;;
66112;SDS011;52893;52.870;5.822;2022-10-28T03:19:48;25.33;;;9.45;;
66112;SDS011;52893;52.870;5.822;2022-10-28T03:22:16;24.58;;;9.50;;
66112;SDS011;52893;52.870;5.822;2022-10-28T03:24:44;18.80;;;9.05;;
66112;SDS011;52893;52.870;5.822;2022-10-28T03:27:11;23.48;;;9.80;;
66112;SDS011;52893;52.870;5.822;2022-10-28T03:29:38;18.73;;;9.25;;
66112;SDS011;52893;52.870;5.822;2022-10-28T03:32:05;27.52;;;9.93;;
66112;SDS011;52893;52.870;5.822;2022-10-28T03:34:32;15.15;;;8.75;;
66112;SDS011;52893;52.870;5.822;2022-10-28T03:36:59;27.63;;;10.98;;
66112;SDS011;52893;52.870;5.822;2022-10-28T03:39:28;21.65;;;10.02;;
66112;SDS011;52893;52.870;5.822;2022-10-28T03:41:55;21.42;;;9.60;;
66112;SDS011;52893;52.870;5.822;2022-10-28T03:44:22;22.55;;;10.75;;
66112;SDS011;52893;52.870;5.822;2022-10-28T03:46:49;21.33;;;10.02;;
66112;SDS011;52893;52.870;5.822;2022-10-28T03:49:16;18.23;;;9.65;;
66112;SDS011;52893;52.870;5.822;2022-10-28T03:51:43;21.08;;;11.02;;
66112;SDS011;52893;52.870;5.822;2022-10-28T03:54:11;19.60;;;9.80;;
66112;SDS011;52893;52.870;5.822;2022-10-28T03:56:39;23.75;;;10.48;;
66112;SDS011;52893;52.870;5.822;2022-10-28T03:59:07;21.35;;;9.80;;
66112;SDS011;52893;52.870;5.822;2022-10-28T04:01:34;27.60;;;11.55;;
66112;SDS011;52893;52.870;5.822;2022-10-28T04:04:02;22.48;;;10.43;;
66112;SDS011;52893;52.870;5.822;2022-10-28T04:06:29;27.23;;;10.35;;
66112;SDS011;52893;52.870;5.822;2022-10-28T04:08:56;19.10;;;10.15;;
66112;SDS011;52893;52.870;5.822;2022-10-28T04:11:23;29.83;;;11.80;;
66112;SDS011;52893;52.870;5.822;2022-10-28T04:13:51;18.08;;;10.20;;
66112;SDS011;52893;52.870;5.822;2022-10-28T04:16:19;23.98;;;9.85;;
66112;SDS011;52893;52.870;5.822;2022-10-28T04:18:46;20.67;;;9.50;;
66112;SDS011;52893;52.870;5.822;2022-10-28T04:21:13;18.20;;;9.32;;
66112;SDS011;52893;52.870;5.822;2022-10-28T04:23:40;27.92;;;10.90;;
66112;SDS011;52893;52.870;5.822;2022-10-28T04:26:07;25.10;;;9.80;;
66112;SDS011;52893;52.870;5.822;2022-10-28T04:28:34;19.35;;;10.18;;
66112;SDS011;52893;52.870;5.822;2022-10-28T04:31:03;18.90;;;10.27;;
66112;SDS011;52893;52.870;5.822;2022-10-28T04:33:30;24.45;;;10.93;;
66112;SDS011;52893;52.870;5.822;2022-10-28T04:35:57;25.67;;;10.05;;
66112;SDS011;52893;52.870;5.822;2022-10-28T04:38:24;23.20;;;8.95;;
66112;SDS011;52893;52.870;5.822;2022-10-28T04:40:52;17.55;;;8.73;;
66112;SDS011;52893;52.870;5.822;2022-10-28T04:43:19;18.88;;;8.55;;
66112;SDS011;52893;52.870;5.822;2022-10-28T04:45:46;19.92;;;8.98;;
66112;SDS011;52893;52.870;5.822;2022-10-28T04:48:14;19.13;;;9.40;;
66112;SDS011;52893;52.870;5.822;2022-10-28T04:50:41;23.15;;;10.05;;
66112;SDS011;52893;52.870;5.822;2022-10-28T04:53:10;17.52;;;10.52;;
66112;SDS011;52893;52.870;5.822;2022-10-28T04:55:38;19.73;;;9.63;;
66112;SDS011;52893;52.870;5.822;2022-10-28T04:58:05;22.80;;;9.07;;
66112;SDS011;52893;52.870;5.822;2022-10-28T05:00:32;18.15;;;9.35;;
66112;SDS011;52893;52.870;5.822;2022-10-28T05:03:00;20.13;;;9.48;;
66112;SDS011;52893;52.870;5.822;2022-10-28T05:05:29;23.92;;;9.32;;
66112;SDS011;52893;52.870;5.822;2022-10-28T05:07:56;20.52;;;9.27;;
66112;SDS011;52893;52.870;5.822;2022-10-28T05:10:23;17.85;;;9.02;;
66112;SDS011;52893;52.870;5.822;2022-10-28T05:12:51;20.15;;;8.82;;
66112;SDS011;52893;52.870;5.822;2022-10-28T05:15:18;20.00;;;8.85;;
66112;SDS011;52893;52.870;5.822;2022-10-28T05:17:45;19.58;;;8.85;;
66112;SDS011;52893;52.870;5.822;2022-10-28T05:20:14;18.98;;;8.10;;
66112;SDS011;52893;52.870;5.822;2022-10-28T05:22:46;20.35;;;9.52;;
66112;SDS011;52893;52.870;5.822;2022-10-28T05:25:15;21.60;;;10.05;;
66112;SDS011;52893;52.870;5.822;2022-10-28T05:27:42;23.92;;;8.82;;
66112;SDS011;52893;52.870;5.822;2022-10-28T05:30:10;19.15;;;8.75;;
66112;SDS011;52893;52.870;5.822;2022-10-28T05:32:37;22.02;;;8.65;;
66112;SDS011;52893;52.870;5.822;2022-10-28T05:35:05;19.30;;;8.50;;
66112;SDS011;52893;52.870;5.822;2022-10-28T05:37:33;23.80;;;9.20;;
66112;SDS011;52893;52.870;5.822;2022-10-28T05:40:02;18.83;;;8.88;;
66112;SDS011;52893;52.870;5.822;2022-10-28T05:42:29;19.88;;;8.93;;
66112;SDS011;52893;52.870;5.822;2022-10-28T05:44:56;23.25;;;9.32;;
66112;SDS011;52893;52.870;5.822;2022-10-28T05:47:23;19.23;;;9.02;;
66112;SDS011;52893;52.870;5.822;2022-10-28T05:49:50;19.08;;;8.80;;
66112;SDS011;52893;52.870;5.822;2022-10-28T05:52:17;19.60;;;8.70;;
66112;SDS011;52893;52.870;5.822;2022-10-28T05:54:44;24.67;;;8.57;;
66112;SDS011;52893;52.870;5.822;2022-10-28T05:57:13;17.50;;;8.32;;
66112;SDS011;52893;52.870;5.822;2022-10-28T05:59:40;14.05;;;7.88;;
66112;SDS011;52893;52.870;5.822;2022-10-28T06:02:09;19.55;;;7.78;;
66112;SDS011;52893;52.870;5.822;2022-10-28T06:04:39;20.63;;;7.80;;
66112;SDS011;52893;52.870;5.822;2022-10-28T06:07:06;15.27;;;7.72;;
66112;SDS011;52893;52.870;5.822;2022-10-28T06:09:34;16.83;;;7.38;;
66112;SDS011;52893;52.870;5.822;2022-10-28T06:12:01;18.75;;;7.78;;
66112;SDS011;52893;52.870;5.822;2022-10-28T06:14:30;23.83;;;6.80;;
66112;SDS011;52893;52.870;5.822;2022-10-28T06:16:58;23.25;;;8.20;;
66112;SDS011;52893;52.870;5.822;2022-10-28T06:19:25;15.80;;;7.00;;
66112;SDS011;52893;52.870;5.822;2022-10-28T06:21:52;18.02;;;7.57;;
66112;SDS011;52893;52.870;5.822;2022-10-28T06:24:19;14.85;;;7.05;;
66112;SDS011;52893;52.870;5.822;2022-10-28T06:26:46;21.60;;;7.75;;
66112;SDS011;52893;52.870;5.822;2022-10-28T06:29:14;20.23;;;6.53;;
66112;SDS011;52893;52.870;5.822;2022-10-28T06:31:42;16.00;;;6.10;;
66112;SDS011;52893;52.870;5.822;2022-10-28T06:34:10;17.80;;;7.05;;
66112;SDS011;52893;52.870;5.822;2022-10-28T06:36:38;16.25;;;6.72;;
66112;SDS011;52893;52.870;5.822;2022-10-28T06:39:05;16.80;;;7.20;;
66112;SDS011;52893;52.870;5.822;2022-10-28T06:41:33;18.55;;;6.43;;
66112;SDS011;52893;52.870;5.822;2022-10-28T06:44:00;18.33;;;6.72;;
66112;SDS011;52893;52.870;5.822;2022-10-28T06:46:28;15.88;;;5.82;;
66112;SDS011;52893;52.870;5.822;2022-10-28T06:48:56;23.40;;;7.22;;
66112;SDS011;52893;52.870;5.822;2022-10-28T06:51:27;15.50;;;6.32;;
66112;SDS011;52893;52.870;5.822;2022-10-28T06:53:56;17.92;;;6.85;;
66112;SDS011;52893;52.870;5.822;2022-10-28T06:56:23;16.98;;;5.75;;
66112;SDS011;52893;52.870;5.822;2022-10-28T06:58:51;24.52;;;7.13;;
66112;SDS011;52893;52.870;5.822;2022-10-28T07:01:19;16.45;;;6.53;;
66112;SDS011;52893;52.870;5.822;2022-10-28T07:03:47;16.25;;;6.70;;
66112;SDS011;52893;52.870;5.822;2022-10-28T07:06:15;25.77;;;6.32;;
66112;SDS011;52893;52.870;5.822;2022-10-28T07:08:43;13.95;;;6.20;;
66112;SDS011;52893;52.870;5.822;2022-10-28T07:11:10;15.10;;;6.43;;
66112;SDS011;52893;52.870;5.822;2022-10-28T07:13:37;15.32;;;6.53;;
66112;SDS011;52893;52.870;5.822;2022-10-28T07:16:05;17.88;;;6.75;;
66112;SDS011;52893;52.870;5.822;2022-10-28T07:18:32;17.08;;;5.85;;
66112;SDS011;52893;52.870;5.822;2022-10-28T07:20:59;18.90;;;6.72;;
66112;SDS011;52893;52.870;5.822;2022-10-28T07:23:28;25.38;;;6.47;;
66112;SDS011;52893;52.870;5.822;2022-10-28T07:25:57;9.10;;;6.07;;
66112;SDS011;52893;52.870;5.822;2022-10-28T07:28:25;13.50;;;5.85;;
66112;SDS011;52893;52.870;5.822;2022-10-28T07:30:52;14.57;;;5.75;;
66112;SDS011;52893;52.870;5.822;2022-10-28T07:33:19;14.73;;;6.00;;
66112;SDS011;52893;52.870;5.822;2022-10-28T07:35:46;30.65;;;6.80;;
66112;SDS011;52893;52.870;5.822;2022-10-28T07:38:14;15.95;;;6.45;;
66112;SDS011;52893;52.870;5.822;2022-10-28T07:40:42;19.48;;;5.90;;
66112;SDS011;52893;52.870;5.822;2022-10-28T07:43:09;13.40;;;6.53;;
66112;SDS011;52893;52.870;5.822;2022-10-28T07:45:37;21.52;;;6.15;;
66112;SDS011;52893;52.870;5.822;2022-10-28T07:48:04;24.15;;;7.05;;
66112;SDS011;52893;52.870;5.822;2022-10-28T07:50:32;14.63;;;6.95;;
66112;SDS011;52893;52.870;5.822;2022-10-28T07:52:59;15.50;;;6.40;;
66112;SDS011;52893;52.870;5.822;2022-10-28T07:55:26;17.05;;;6.20;;
66112;SDS011;52893;52.870;5.822;2022-10-28T07:57:55;17.85;;;6.38;;
66112;SDS011;52893;52.870;5.822;2022-10-28T08:00:22;21.60;;;6.38;;
66112;SDS011;52893;52.870;5.822;2022-10-28T08:02:49;21.40;;;6.47;;
66112;SDS011;52893;52.870;5.822;2022-10-28T08:05:16;22.17;;;6.68;;
66112;SDS011;52893;52.870;5.822;2022-10-28T08:07:44;19.35;;;6.18;;
66112;SDS011;52893;52.870;5.822;2022-10-28T08:10:12;15.27;;;6.15;;
66112;SDS011;52893;52.870;5.822;2022-10-28T08:12:39;14.88;;;6.00;;
66112;SDS011;52893;52.870;5.822;2022-10-28T08:15:08;13.35;;;5.90;;
66112;SDS011;52893;52.870;5.822;2022-10-28T08:17:37;16.73;;;6.30;;
66112;SDS011;52893;52.870;5.822;2022-10-28T08:20:04;12.82;;;6.07;;
66112;SDS011;52893;52.870;5.822;2022-10-28T08:22:32;18.50;;;5.90;;
66112;SDS011;52893;52.870;5.822;2022-10-28T08:24:59;20.48;;;6.28;;
66112;SDS011;52893;52.870;5.822;2022-10-28T08:27:26;13.07;;;5.95;;
66112;SDS011;52893;52.870;5.822;2022-10-28T08:29:53;15.20;;;6.60;;
66112;SDS011;52893;52.870;5.822;2022-10-28T08:32:22;17.23;;;6.40;;
66112;SDS011;52893;52.870;5.822;2022-10-28T08:34:49;16.95;;;6.60;;
66112;SDS011;52893;52.870;5.822;2022-10-28T08:37:16;18.60;;;5.90;;
66112;SDS011;52893;52.870;5.822;2022-10-28T08:39:43;16.40;;;6.13;;
66112;SDS011;52893;52.870;5.822;2022-10-28T08:42:22;17.85;;;6.07;;
66112;SDS011;52893;52.870;5.822;2022-10-28T08:45:07;14.00;;;6.40;;
66112;SDS011;52893;52.870;5.822;2022-10-28T08:47:47;13.65;;;6.30;;
66112;SDS011;52893;52.870;5.822;2022-10-28T08:50:21;21.55;;;6.45;;
66112;SDS011;52893;52.870;5.822;2022-10-28T08:52:52;20.80;;;6.40;;
66112;SDS011;52893;52.870;5.822;2022-10-28T08:55:22;17.98;;;6.57;;
66112;SDS011;52893;52.870;5.822;2022-10-28T08:57:54;16.67;;;6.22;;
66112;SDS011;52893;52.870;5.822;2022-10-28T09:00:24;25.38;;;5.88;;
66112;SDS011;52893;52.870;5.822;2022-10-28T09:02:56;12.98;;;5.88;;
66112;SDS011;52893;52.870;5.822;2022-10-28T09:05:32;11.75;;;5.35;;
66112;SDS011;52893;52.870;5.822;2022-10-28T09:07:59;13.70;;;5.82;;
66112;SDS011;52893;52.870;5.822;2022-10-28T09:10:34;13.70;;;5.88;;
66112;SDS011;52893;52.870;5.822;2022-10-28T09:13:12;15.43;;;5.78;;
66112;SDS011;52893;52.870;5.822;2022-10-28T09:15:48;15.65;;;5.53;;
66112;SDS011;52893;52.870;5.822;2022-10-28T09:18:29;14.57;;;6.38;;
66112;SDS011;52893;52.870;5.822;2022-10-28T09:21:12;15.13;;;5.53;;
66112;SDS011;52893;52.870;5.822;2022-10-28T09:23:45;19.20;;;5.78;;
66112;SDS011;52893;52.870;5.822;2022-10-28T09:26:19;15.07;;;5.60;;
66112;SDS011;52893;52.870;5.822;2022-10-28T09:28:57;24.17;;;6.70;;
66112;SDS011;52893;52.870;5.822;2022-10-28T09:31:33;19.60;;;6.03;;
66112;SDS011;52893;52.870;5.822;2022-10-28T09:34:09;27.60;;;6.03;;
66112;SDS011;52893;52.870;5.822;2022-10-28T09:36:43;19.75;;;5.53;;
66112;SDS011;52893;52.870;5.822;2022-10-28T09:39:15;24.80;;;6.30;;
66112;SDS011;52893;52.870;5.822;2022-10-28T09:41:45;17.23;;;6.05;;
66112;SDS011;52893;52.870;5.822;2022-10-28T09:44:14;16.05;;;5.75;;
66112;SDS011;52893;52.870;5.822;2022-10-28T09:46:45;17.42;;;5.95;;
66112;SDS011;52893;52.870;5.822;2022-10-28T09:49:17;26.38;;;6.40;;
66112;SDS011;52893;52.870;5.822;2022-10-28T09:54:17;24.65;;;5.95;;
66112;SDS011;52893;52.870;5.822;2022-10-28T09:56:53;14.00;;;6.20;;
66112;SDS011;52893;52.870;5.822;2022-10-28T09:59:20;16.23;;;6.78;;
66112;SDS011;52893;52.870;5.822;2022-10-28T10:01:47;15.45;;;5.55;;
66112;SDS011;52893;52.870;5.822;2022-10-28T10:04:18;17.77;;;5.85;;
66112;SDS011;52893;52.870;5.822;2022-10-28T10:06:48;19.77;;;6.05;;
66112;SDS011;52893;52.870;5.822;2022-10-28T10:09:19;20.10;;;5.80;;
66112;SDS011;52893;52.870;5.822;2022-10-28T10:11:49;17.80;;;5.10;;
66112;SDS011;52893;52.870;5.822;2022-10-28T10:14:21;23.38;;;5.93;;
66112;SDS011;52893;52.870;5.822;2022-10-28T10:16:55;15.77;;;5.60;;
66112;SDS011;52893;52.870;5.822;2022-10-28T10:19:26;18.67;;;5.32;;
66112;SDS011;52893;52.870;5.822;2022-10-28T10:21:53;16.65;;;5.28;;
66112;SDS011;52893;52.870;5.822;2022-10-28T10:24:21;19.40;;;5.07;;
66112;SDS011;52893;52.870;5.822;2022-10-28T10:26:50;26.98;;;6.43;;
66112;SDS011;52893;52.870;5.822;2022-10-28T10:29:17;19.70;;;5.47;;
66112;SDS011;52893;52.870;5.822;2022-10-28T10:31:45;19.52;;;5.75;;
66112;SDS011;52893;52.870;5.822;2022-10-28T10:34:19;13.10;;;5.20;;
66112;SDS011;52893;52.870;5.822;2022-10-28T10:36:52;17.65;;;5.53;;
66112;SDS011;52893;52.870;5.822;2022-10-28T10:39:21;25.55;;;6.28;;
66112;SDS011;52893;52.870;5.822;2022-10-28T10:41:53;15.68;;;4.65;;
66112;SDS011;52893;52.870;5.822;2022-10-28T10:44:28;14.45;;;5.45;;
66112;SDS011;52893;52.870;5.822;2022-10-28T10:47:18;12.98;;;5.15;;
66112;SDS011;52893;52.870;5.822;2022-10-28T10:49:47;17.35;;;5.35;;
66112;SDS011;52893;52.870;5.822;2022-10-28T10:52:18;16.48;;;5.18;;
66112;SDS011;52893;52.870;5.822;2022-10-28T10:54:58;13.83;;;5.03;;
66112;SDS011;52893;52.870;5.822;2022-10-28T10:57:27;15.38;;;4.63;;
66112;SDS011;52893;52.870;5.822;2022-10-28T10:59:55;15.50;;;5.10;;
66112;SDS011;52893;52.870;5.822;2022-10-28T11:02:23;16.40;;;5.28;;
66112;SDS011;52893;52.870;5.822;2022-10-28T11:04:54;22.17;;;5.10;;
66112;SDS011;52893;52.870;5.822;2022-10-28T11:07:26;15.93;;;4.60;;
66112;SDS011;52893;52.870;5.822;2022-10-28T11:09:55;18.10;;;4.90;;
66112;SDS011;52893;52.870;5.822;2022-10-28T11:12:26;19.98;;;5.38;;
66112;SDS011;52893;52.870;5.822;2022-10-28T11:14:55;19.10;;;5.15;;
66112;SDS011;52893;52.870;5.822;2022-10-28T11:17:25;16.77;;;4.63;;
66112;SDS011;52893;52.870;5.822;2022-10-28T11:19:54;10.77;;;4.55;;
66112;SDS011;52893;52.870;5.822;2022-10-28T11:22:27;18.13;;;4.55;;
66112;SDS011;52893;52.870;5.822;2022-10-28T11:25:17;15.43;;;4.78;;
66112;SDS011;52893;52.870;5.822;2022-10-28T11:28:03;18.15;;;4.70;;
66112;SDS011;52893;52.870;5.822;2022-10-28T11:30:39;13.75;;;4.25;;
66112;SDS011;52893;52.870;5.822;2022-10-28T11:33:15;14.80;;;4.43;;
66112;SDS011;52893;52.870;5.822;2022-10-28T11:35:47;14.90;;;5.07;;
66112;SDS011;52893;52.870;5.822;2022-10-28T11:38:25;17.65;;;5.20;;
66112;SDS011;52893;52.870;5.822;2022-10-28T11:41:07;15.15;;;5.35;;
66112;SDS011;52893;52.870;5.822;2022-10-28T11:43:43;17.35;;;4.90;;
66112;SDS011;52893;52.870;5.822;2022-10-28T11:46:16;15.85;;;5.07;;
66112;SDS011;52893;52.870;5.822;2022-10-28T11:48:59;19.00;;;5.18;;
66112;SDS011;52893;52.870;5.822;2022-10-28T11:51:41;18.13;;;5.00;;
66112;SDS011;52893;52.870;5.822;2022-10-28T11:57:10;19.13;;;4.22;;
66112;SDS011;52893;52.870;5.822;2022-10-28T11:59:48;13.45;;;4.97;;
66112;SDS011;52893;52.870;5.822;2022-10-28T12:02:33;18.05;;;5.28;;
66112;SDS011;52893;52.870;5.822;2022-10-28T12:05:13;8.98;;;4.32;;
66112;SDS011;52893;52.870;5.822;2022-10-28T12:07:49;14.35;;;5.15;;
66112;SDS011;52893;52.870;5.822;2022-10-28T12:10:44;18.20;;;5.57;;
66112;SDS011;52893;52.870;5.822;2022-10-28T12:13:23;11.07;;;5.28;;
66112;SDS011;52893;52.870;5.822;2022-10-28T12:16:01;17.60;;;5.63;;
66112;SDS011;52893;52.870;5.822;2022-10-28T12:18:39;19.15;;;5.10;;
66112;SDS011;52893;52.870;5.822;2022-10-28T12:21:13;18.02;;;5.88;;
66112;SDS011;52893;52.870;5.822;2022-10-28T12:23:48;15.40;;;4.18;;
66112;SDS011;52893;52.870;5.822;2022-10-28T12:26:17;14.60;;;4.80;;
66112;SDS011;52893;52.870;5.822;2022-10-28T12:28:47;18.45;;;4.70;;
66112;SDS011;52893;52.870;5.822;2022-10-28T12:31:19;12.73;;;4.50;;
66112;SDS011;52893;52.870;5.822;2022-10-28T12:33:49;18.52;;;4.72;;
66112;SDS011;52893;52.870;5.822;2022-10-28T12:36:23;19.65;;;4.80;;
66112;SDS011;52893;52.870;5.822;2022-10-28T12:38:59;18.70;;;4.68;;
66112;SDS011;52893;52.870;5.822;2022-10-28T12:41:40;21.48;;;4.82;;
66112;SDS011;52893;52.870;5.822;2022-10-28T12:44:11;24.83;;;5.22;;
66112;SDS011;52893;52.870;5.822;2022-10-28T12:46:43;18.02;;;4.28;;
66112;SDS011;52893;52.870;5.822;2022-10-28T12:49:17;13.48;;;4.28;;
66112;SDS011;52893;52.870;5.822;2022-10-28T12:51:50;23.38;;;5.20;;
66112;SDS011;52893;52.870;5.822;2022-10-28T12:54:20;20.25;;;4.80;;
66112;SDS011;52893;52.870;5.822;2022-10-28T12:56:58;17.10;;;5.13;;
66112;SDS011;52893;52.870;5.822;2022-10-28T12:59:31;21.05;;;5.07;;
66112;SDS011;52893;52.870;5.822;2022-10-28T13:02:03;17.20;;;4.78;;
66112;SDS011;52893;52.870;5.822;2022-10-28T13:04:40;15.15;;;4.15;;
66112;SDS011;52893;52.870;5.822;2022-10-28T13:07:21;16.55;;;4.72;;
66112;SDS011;52893;52.870;5.822;2022-10-28T13:10:02;14.23;;;4.73;;
66112;SDS011;52893;52.870;5.822;2022-10-28T13:12:51;18.25;;;3.85;;
66112;SDS011;52893;52.870;5.822;2022-10-28T13:15:41;18.38;;;4.63;;
66112;SDS011;52893;52.870;5.822;2022-10-28T13:18:26;11.30;;;3.33;;
66112;SDS011;52893;52.870;5.822;2022-10-28T13:21:20;23.30;;;4.43;;
66112;SDS011;52893;52.870;5.822;2022-10-28T13:23:56;20.05;;;4.93;;
66112;SDS011;52893;52.870;5.822;2022-10-28T13:26:30;12.40;;;4.30;;
66112;SDS011;52893;52.870;5.822;2022-10-28T13:29:01;19.35;;;4.65;;
66112;SDS011;52893;52.870;5.822;2022-10-28T13:31:35;13.70;;;3.90;;
66112;SDS011;52893;52.870;5.822;2022-10-28T13:34:04;9.95;;;2.88;;
66112;SDS011;52893;52.870;5.822;2022-10-28T13:36:33;18.80;;;4.00;;
66112;SDS011;52893;52.870;5.822;2022-10-28T13:39:04;19.38;;;4.03;;
66112;SDS011;52893;52.870;5.822;2022-10-28T13:41:34;13.55;;;4.45;;
66112;SDS011;52893;52.870;5.822;2022-10-28T13:47:01;20.20;;;4.32;;
66112;SDS011;52893;52.870;5.822;2022-10-28T13:55:48;15.15;;;4.43;;
66112;SDS011;52893;52.870;5.822;2022-10-28T13:58:18;15.35;;;4.45;;
66112;SDS011;52893;52.870;5.822;2022-10-28T14:00:48;20.35;;;4.80;;
66112;SDS011;52893;52.870;5.822;2022-10-28T14:03:17;11.93;;;4.00;;
66112;SDS011;52893;52.870;5.822;2022-10-28T14:05:49;10.20;;;3.75;;
66112;SDS011;52893;52.870;5.822;2022-10-28T14:08:19;24.05;;;4.07;;
66112;SDS011;52893;52.870;5.822;2022-10-28T14:10:58;15.75;;;3.65;;
66112;SDS011;52893;52.870;5.822;2022-10-28T14:13:28;20.25;;;4.93;;
66112;SDS011;52893;52.870;5.822;2022-10-28T14:16:15;13.32;;;4.20;;
66112;SDS011;52893;52.870;5.822;2022-10-28T14:18:52;17.85;;;4.45;;
66112;SDS011;52893;52.870;5.822;2022-10-28T14:21:22;19.15;;;5.05;;
66112;SDS011;52893;52.870;5.822;2022-10-28T14:30:14;18.98;;;4.72;;
66112;SDS011;52893;52.870;5.822;2022-10-28T14:32:49;16.55;;;4.75;;
66112;SDS011;52893;52.870;5.822;2022-10-28T14:35:24;17.05;;;5.28;;
66112;SDS011;52893;52.870;5.822;2022-10-28T14:41:22;13.40;;;5.47;;
66112;SDS011;52893;52.870;5.822;2022-10-28T14:43:59;23.73;;;5.40;;
66112;SDS011;52893;52.870;5.822;2022-10-28T14:46:37;23.02;;;6.22;;
66112;SDS011;52893;52.870;5.822;2022-10-28T14:49:15;18.73;;;4.85;;
66112;SDS011;52893;52.870;5.822;2022-10-28T14:51:46;20.48;;;6.25;;
66112;SDS011;52893;52.870;5.822;2022-10-28T14:54:14;20.80;;;4.85;;
66112;SDS011;52893;52.870;5.822;2022-10-28T14:56:43;21.70;;;5.53;;
66112;SDS011;52893;52.870;5.822;2022-10-28T14:59:22;13.82;;;5.22;;
66112;SDS011;52893;52.870;5.822;2022-10-28T15:01:58;18.02;;;4.50;;
66112;SDS011;52893;52.870;5.822;2022-10-28T15:04:29;18.17;;;4.30;;
66112;SDS011;52893;52.870;5.822;2022-10-28T15:06:57;18.65;;;4.90;;
66112;SDS011;52893;52.870;5.822;2022-10-28T15:09:26;16.63;;;4.32;;
66112;SDS011;52893;52.870;5.822;2022-10-28T15:11:55;16.80;;;5.03;;
66112;SDS011;52893;52.870;5.822;2022-10-28T15:14:26;20.75;;;4.28;;
66112;SDS011;52893;52.870;5.822;2022-10-28T15:16:55;15.55;;;5.55;;
66112;SDS011;52893;52.870;5.822;2022-10-28T15:19:25;23.10;;;4.97;;
66112;SDS011;52893;52.870;5.822;2022-10-28T15:22:10;17.38;;;4.95;;
66112;SDS011;52893;52.870;5.822;2022-10-28T15:24:40;16.75;;;4.80;;